Terminal Aerodrome Forecast
Issued by NWS Cleveland, OH

Home | Current Version | Previous Version | Text Only | Print | Product List | Glossary Off
Versions: 1 2 3 4 5 6 7 8 9 10 11 12 13 14 15 16 17 18 19 20 21 22 23 24 25 26 27 28 29 30

000
FTUS41 KCLE 311100
TAFCLE
TAF
KCLE 311124Z 3112/0118 17010KT P6SM VCSH OVC080
     FM311300 21014G22KT P6SM VCSH OVC080
     FM311500 34012KT P6SM SCT015 OVC045
      TEMPO 3116/3120 OVC015
     FM312100 35010KT P6SM SCT035 BKN080
     FM010000 33004KT P6SM BKN250
     FM010800 18004KT P6SM BKN050=

USA.gov is the U.S. government's official web portal to all federal, state and local government web resources and services.